Time;durP1;ratioP1;P1;durP2;ratioP2;P2;SDS_P1;SDS_P2;PMS_P1;PMS_P2;Temp;Humidity;BMP_temperature;BMP_pressure;BME280_temperature;BME280_humidity;BME280_pressure;Samples;Min_cycle;Max_cycle;Signal;HPM_P1;HPM_P2
2023/07/04 00:00:34;;;;;;;9.95;4.10;;;16.50;99.90;;;;;;5005450;28;20034;-32
2023/07/04 00:03:00;;;;;;;6.55;3.60;;;16.50;99.90;;;;;;5002760;28;20040;-32
2023/07/04 00:05:26;;;;;;;8.65;4.50;;;16.50;99.90;;;;;;5006692;28;20034;-31
2023/07/04 00:07:51;;;;;;;7.55;4.38;;;16.60;99.90;;;;;;5008625;28;20025;-31
2023/07/04 00:10:17;;;;;;;9.23;4.80;;;16.60;99.90;;;;;;5007275;28;20537;-31
2023/07/04 00:12:43;;;;;;;7.25;3.95;;;16.60;99.90;;;;;;5006926;28;20029;-34
2023/07/04 00:15:09;;;;;;;6.07;3.85;;;16.50;99.90;;;;;;5000960;28;20126;-33
2023/07/04 00:17:35;;;;;;;8.82;4.70;;;16.50;99.90;;;;;;5003926;28;20038;-35
2023/07/04 00:20:00;;;;;;;8.35;4.80;;;16.60;99.90;;;;;;5006631;28;20030;-34
2023/07/04 00:22:26;;;;;;;8.52;4.15;;;16.60;99.90;;;;;;5009501;28;20061;-36
2023/07/04 00:24:52;;;;;;;9.85;4.43;;;16.50;99.90;;;;;;5009416;28;20030;-33
2023/07/04 00:27:19;;;;;;;7.05;4.30;;;16.40;99.90;;;;;;4999533;28;20568;-36
2023/07/04 00:29:45;;;;;;;7.93;4.17;;;16.50;99.90;;;;;;5002090;28;20162;-33
2023/07/04 00:32:12;;;;;;;7.65;4.53;;;16.50;99.90;;;;;;5009107;28;20301;-33
2023/07/04 00:34:38;;;;;;;5.78;4.28;;;16.50;99.90;;;;;;5005893;28;20057;-32
2023/07/04 00:37:04;;;;;;;9.30;4.82;;;16.50;99.90;;;;;;5003487;28;20127;-32
2023/07/04 00:39:29;;;;;;;9.30;4.25;;;16.50;99.90;;;;;;5005146;28;20026;-34
2023/07/04 00:41:55;;;;;;;6.47;4.22;;;16.50;99.90;;;;;;5007617;28;20030;-31
2023/07/04 00:44:30;;;;;;;7.70;4.35;;;16.40;99.90;;;;;;5007277;28;20508;-31
2023/07/04 00:47:06;;;;;;;7.05;4.35;;;16.30;99.90;;;;;;5003159;28;20038;-32
2023/07/04 00:49:49;;;;;;;9.15;4.40;;;16.30;99.90;;;;;;5003089;28;20037;-37
2023/07/04 00:52:24;;;;;;;8.98;4.30;;;16.30;99.90;;;;;;4997647;28;20057;-32
2023/07/04 00:54:54;;;;;;;6.50;4.70;;;16.30;99.90;;;;;;5005687;28;20634;-32
2023/07/04 00:57:23;;;;;;;6.07;4.30;;;16.40;99.90;;;;;;5005977;28;20047;-31
2023/07/04 00:59:57;;;;;;;8.02;4.38;;;16.40;99.90;;;;;;5001420;28;20042;-39
2023/07/04 01:02:31;;;;;;;7.10;4.32;;;16.30;99.90;;;;;;5002529;28;20031;-42
2023/07/04 01:04:59;;;;;;;8.95;4.78;;;16.40;99.90;;;;;;5001262;28;20041;-41
2023/07/04 01:07:30;;;;;;;6.50;4.03;;;16.40;99.90;;;;;;5001453;28;20064;-42
2023/07/04 01:10:05;;;;;;;8.63;4.22;;;16.40;99.90;;;;;;5001430;28;20034;-40
2023/07/04 01:12:31;;;;;;;7.93;3.97;;;16.50;99.90;;;;;;4995969;28;20706;-40
2023/07/04 01:14:59;;;;;;;6.93;3.83;;;16.60;99.90;;;;;;4971258;28;20030;-39
2023/07/04 01:17:25;;;;;;;9.55;4.40;;;16.60;99.90;;;;;;4991010;28;20044;-39
2023/07/04 01:19:51;;;;;;;8.45;4.57;;;16.50;99.90;;;;;;4989027;28;20037;-34
2023/07/04 01:22:29;;;;;;;6.00;3.90;;;16.30;99.90;;;;;;4993717;28;20038;-38
2023/07/04 01:25:29;;;;;;;6.55;4.55;;;16.20;99.90;;;;;;4989602;28;20091;-38
2023/07/04 01:27:59;;;;;;;7.25;4.20;;;16.30;99.90;;;;;;4936486;28;20121;-42
2023/07/04 01:30:28;;;;;;;6.32;3.97;;;16.30;99.90;;;;;;5005695;28;20509;-41
2023/07/04 01:32:55;;;;;;;7.65;3.88;;;16.30;99.90;;;;;;5002481;28;20137;-40
2023/07/04 01:35:22;;;;;;;4.85;3.28;;;16.10;99.90;;;;;;5001879;28;20072;-42
2023/07/04 01:37:48;;;;;;;6.22;3.70;;;16.00;99.90;;;;;;4999972;28;20026;-40
2023/07/04 01:40:14;;;;;;;7.00;3.85;;;16.10;99.90;;;;;;5003585;28;20041;-42
2023/07/04 01:42:40;;;;;;;6.13;3.80;;;16.00;99.90;;;;;;5003609;28;20380;-42
2023/07/04 01:45:07;;;;;;;6.07;3.65;;;16.00;99.90;;;;;;5006643;28;20049;-40
2023/07/04 01:47:35;;;;;;;6.10;3.45;;;16.10;99.90;;;;;;5006066;28;20034;-40
2023/07/04 01:50:02;;;;;;;7.07;3.30;;;16.10;99.90;;;;;;5001315;28;22382;-42
2023/07/04 01:52:29;;;;;;;5.90;3.33;;;16.20;99.90;;;;;;4999581;28;20470;-40
2023/07/04 01:54:56;;;;;;;6.43;3.65;;;16.20;99.90;;;;;;5002402;28;20080;-43
2023/07/04 01:57:22;;;;;;;6.03;3.20;;;16.10;99.90;;;;;;5003843;28;20030;-36
2023/07/04 01:59:48;;;;;;;5.93;3.17;;;16.10;99.90;;;;;;5003135;28;20057;-42
2023/07/04 02:02:13;;;;;;;5.72;3.60;;;16.20;99.90;;;;;;4998764;28;20026;-40
2023/07/04 02:04:40;;;;;;;6.05;3.50;;;16.20;99.90;;;;;;5001617;28;20026;-42
2023/07/04 02:07:06;;;;;;;7.90;3.83;;;16.30;99.90;;;;;;5004974;28;20034;-40
2023/07/04 02:09:32;;;;;;;4.65;3.17;;;16.30;99.90;;;;;;5004940;28;20030;-36
2023/07/04 02:11:57;;;;;;;5.32;3.30;;;16.30;99.90;;;;;;5001974;28;20030;-34
2023/07/04 02:14:24;;;;;;;6.43;3.53;;;16.30;99.90;;;;;;5002674;28;20081;-34
2023/07/04 02:16:50;;;;;;;5.78;3.53;;;16.30;99.90;;;;;;5003210;28;20479;-35
2023/07/04 02:19:16;;;;;;;6.95;3.67;;;16.30;99.90;;;;;;5005040;28;20056;-34
2023/07/04 02:21:42;;;;;;;6.63;3.53;;;16.30;99.90;;;;;;5000665;28;20030;-35
2023/07/04 02:24:07;;;;;;;7.05;3.85;;;16.30;99.90;;;;;;5004137;28;20480;-36
2023/07/04 02:26:34;;;;;;;6.10;3.50;;;16.20;99.90;;;;;;5005471;28;20053;-34
2023/07/04 02:28:59;;;;;;;4.38;3.50;;;16.20;99.90;;;;;;5005794;28;20030;-33
2023/07/04 02:31:25;;;;;;;5.47;3.80;;;16.20;99.90;;;;;;5001901;28;20072;-33
2023/07/04 02:33:51;;;;;;;5.78;3.53;;;16.20;99.90;;;;;;4987840;28;20089;-36
2023/07/04 02:36:18;;;;;;;6.95;4.28;;;16.20;99.90;;;;;;5004225;28;20045;-33
2023/07/04 02:38:43;;;;;;;5.63;3.42;;;16.20;99.90;;;;;;5004257;28;20049;-34
2023/07/04 02:41:10;;;;;;;7.53;3.40;;;16.20;99.90;;;;;;5002552;28;20030;-35
2023/07/04 02:43:36;;;;;;;7.15;3.60;;;16.10;99.90;;;;;;4998426;28;20068;-35
2023/07/04 02:46:03;;;;;;;7.00;3.38;;;16.10;99.90;;;;;;5001474;28;20050;-34
2023/07/04 02:48:29;;;;;;;6.35;3.55;;;16.10;99.90;;;;;;5000250;28;20022;-33
2023/07/04 02:50:55;;;;;;;6.90;3.50;;;16.00;99.90;;;;;;5000675;28;20538;-34
2023/07/04 02:53:22;;;;;;;7.82;3.80;;;16.00;99.90;;;;;;5000759;28;20029;-35
2023/07/04 02:55:52;;;;;;;5.72;3.50;;;16.10;99.90;;;;;;4982493;28;20044;-35
2023/07/04 02:58:19;;;;;;;6.40;3.55;;;16.00;99.90;;;;;;4997635;28;20045;-33
2023/07/04 03:00:47;;;;;;;6.68;4.72;;;16.00;99.90;;;;;;5005338;28;20092;-33
2023/07/04 03:03:13;;;;;;;4.32;3.20;;;15.90;99.90;;;;;;5002855;28;20388;-33
2023/07/04 03:05:39;;;;;;;4.20;2.97;;;15.80;99.90;;;;;;5001824;28;20480;-34
2023/07/04 03:08:05;;;;;;;7.82;4.38;;;15.80;99.90;;;;;;5000378;28;20408;-33
2023/07/04 03:10:32;;;;;;;7.53;3.50;;;15.90;99.90;;;;;;5005847;28;20022;-36
2023/07/04 03:12:58;;;;;;;8.88;3.60;;;15.80;99.90;;;;;;5002705;28;20038;-33
2023/07/04 03:15:23;;;;;;;6.75;3.83;;;15.80;99.90;;;;;;5005315;28;20357;-34
2023/07/04 03:17:49;;;;;;;6.55;3.80;;;15.80;99.90;;;;;;5003510;28;20057;-33
2023/07/04 03:20:15;;;;;;;5.93;3.30;;;15.80;99.90;;;;;;5009764;28;20140;-31
2023/07/04 03:22:42;;;;;;;5.80;3.53;;;15.70;99.90;;;;;;5007557;28;20075;-33
2023/07/04 03:25:09;;;;;;;5.93;3.80;;;15.70;99.90;;;;;;5008957;28;20030;-32
2023/07/04 03:27:39;;;;;;;6.03;3.90;;;15.70;99.90;;;;;;5007979;28;20030;-32
2023/07/04 03:30:08;;;;;;;4.38;3.55;;;15.80;99.90;;;;;;5009158;28;20034;-31
2023/07/04 03:32:34;;;;;;;6.50;4.22;;;15.80;99.90;;;;;;5003840;28;20496;-33
2023/07/04 03:35:02;;;;;;;7.10;4.25;;;15.70;99.90;;;;;;5007935;28;20081;-32
2023/07/04 03:37:29;;;;;;;7.70;3.75;;;15.70;99.90;;;;;;5002218;28;20045;-32
2023/07/04 03:39:56;;;;;;;7.25;3.75;;;15.70;99.90;;;;;;5003433;28;20491;-31
2023/07/04 03:42:23;;;;;;;5.35;3.63;;;15.70;99.90;;;;;;5002009;28;20057;-33
2023/07/04 03:44:48;;;;;;;5.93;3.75;;;15.80;99.90;;;;;;5003263;28;20447;-32
2023/07/04 03:47:14;;;;;;;4.63;3.45;;;15.80;99.90;;;;;;5004286;28;20101;-34
2023/07/04 03:49:40;;;;;;;4.32;3.25;;;15.80;99.90;;;;;;5001172;28;20515;-32
2023/07/04 03:52:05;;;;;;;9.35;3.60;;;15.90;99.90;;;;;;4996409;28;20054;-37
2023/07/04 03:54:31;;;;;;;6.05;3.88;;;15.90;99.90;;;;;;5006938;28;20387;-31
2023/07/04 03:56:57;;;;;;;6.78;3.70;;;16.00;99.90;;;;;;5005459;28;20048;-34
2023/07/04 03:59:22;;;;;;;5.97;3.40;;;15.90;99.90;;;;;;5005937;28;20474;-31
2023/07/04 04:01:48;;;;;;;6.43;3.60;;;15.90;99.90;;;;;;5001583;28;20104;-35
2023/07/04 04:04:13;;;;;;;5.78;3.60;;;15.90;99.90;;;;;;4994549;28;20117;-35
2023/07/04 04:06:39;;;;;;;4.10;3.30;;;15.90;99.90;;;;;;4995854;28;20046;-35
2023/07/04 04:09:04;;;;;;;4.97;3.47;;;15.90;99.90;;;;;;5000069;28;20052;-34
2023/07/04 04:11:30;;;;;;;8.70;3.53;;;15.90;99.90;;;;;;4996629;28;20842;-33
2023/07/04 04:13:55;;;;;;;4.22;2.88;;;15.80;99.90;;;;;;4995009;28;20455;-38
2023/07/04 04:16:22;;;;;;;4.18;3.13;;;15.80;99.90;;;;;;4997136;28;20042;-38
2023/07/04 04:18:50;;;;;;;5.50;3.53;;;15.90;99.90;;;;;;4996233;28;20499;-31
2023/07/04 04:21:16;;;;;;;4.47;3.17;;;15.80;99.90;;;;;;4998341;28;20477;-35
2023/07/04 04:23:41;;;;;;;5.10;3.50;;;15.80;99.90;;;;;;4996497;28;20026;-31
2023/07/04 04:26:08;;;;;;;5.32;3.40;;;15.80;99.90;;;;;;4997219;28;20031;-36
2023/07/04 04:28:33;;;;;;;6.40;3.15;;;15.80;99.90;;;;;;4995855;28;20034;-35
2023/07/04 04:30:59;;;;;;;5.10;3.22;;;15.90;99.90;;;;;;4990000;28;20030;-36
2023/07/04 04:33:25;;;;;;;5.72;3.65;;;16.00;99.90;;;;;;4989514;28;20499;-37
2023/07/04 04:35:51;;;;;;;5.65;3.28;;;16.10;99.90;;;;;;4990585;28;20034;-33
2023/07/04 04:38:17;;;;;;;4.80;3.10;;;16.20;99.90;;;;;;4992803;28;20040;-42
2023/07/04 04:40:43;;;;;;;4.72;2.97;;;16.30;99.90;;;;;;4990442;28;20729;-39
2023/07/04 04:43:09;;;;;;;3.53;2.83;;;16.30;99.90;;;;;;4990574;28;20038;-40
2023/07/04 04:45:36;;;;;;;4.15;3.13;;;16.40;99.90;;;;;;4986654;28;20026;-36
2023/07/04 04:48:06;;;;;;;3.53;2.55;;;16.50;99.90;;;;;;4993631;28;20038;-36
2023/07/04 04:50:32;;;;;;;4.63;2.70;;;16.50;99.90;;;;;;4990279;28;20484;-40
2023/07/04 04:52:58;;;;;;;3.50;2.88;;;16.50;99.90;;;;;;4995402;28;20045;-37
2023/07/04 04:55:24;;;;;;;7.22;3.60;;;16.40;99.90;;;;;;5004298;28;20657;-42
2023/07/04 04:57:50;;;;;;;5.10;2.95;;;16.40;99.90;;;;;;5004380;28;20045;-39
2023/07/04 05:00:16;;;;;;;7.10;3.83;;;16.50;99.90;;;;;;5003010;28;20154;-40
2023/07/04 05:02:44;;;;;;;5.95;3.65;;;16.50;99.90;;;;;;5006179;28;20030;-40
2023/07/04 05:05:10;;;;;;;;;;;16.50;99.90;;;;;;5006995;28;20038;-41
2023/07/04 05:07:36;;;;;;;5.15;3.38;;;16.50;99.90;;;;;;5003954;28;19959;-42
2023/07/04 05:10:02;;;;;;;6.43;3.30;;;16.50;99.90;;;;;;5006435;28;20796;-41
2023/07/04 05:12:28;;;;;;;6.00;3.42;;;16.60;99.90;;;;;;5004272;28;20041;-38
2023/07/04 05:14:54;;;;;;;7.00;3.30;;;16.60;99.90;;;;;;5004445;28;20030;-41
2023/07/04 05:17:19;;;;;;;4.65;3.20;;;16.60;99.90;;;;;;5003969;28;20479;-43
2023/07/04 05:19:49;;;;;;;5.32;3.00;;;16.70;99.90;;;;;;4999092;28;20116;-40
2023/07/04 05:22:16;;;;;;;4.18;2.60;;;16.70;99.90;;;;;;4999699;28;20109;-41
2023/07/04 05:24:42;;;;;;;3.97;3.00;;;16.70;99.90;;;;;;5000160;28;20073;-41
2023/07/04 05:27:08;;;;;;;4.45;3.00;;;16.70;99.90;;;;;;4997492;28;20042;-40
2023/07/04 05:29:33;;;;;;;5.20;3.78;;;16.80;99.90;;;;;;5001618;28;20109;-42
2023/07/04 05:31:59;;;;;;;5.25;2.90;;;16.70;99.90;;;;;;4996133;28;20040;-42
2023/07/04 05:34:24;;;;;;;5.50;3.47;;;16.70;99.90;;;;;;5003932;28;20026;-36
2023/07/04 05:36:56;;;;;;;4.63;3.10;;;16.70;99.90;;;;;;5006897;28;20523;-42
2023/07/04 05:39:21;;;;;;;5.88;2.97;;;16.80;99.90;;;;;;4999036;28;20034;-41
2023/07/04 05:41:47;;;;;;;4.97;2.80;;;16.80;99.90;;;;;;5003878;28;20036;-41
2023/07/04 05:44:13;;;;;;;4.15;2.45;;;16.90;99.90;;;;;;5007844;28;20029;-39
2023/07/04 05:46:38;;;;;;;5.72;2.53;;;16.90;99.90;;;;;;5005458;28;20054;-42
2023/07/04 05:49:04;;;;;;;2.33;2.13;;;17.00;99.90;;;;;;5008407;28;20056;-42
2023/07/04 05:51:31;;;;;;;3.08;2.40;;;17.00;99.90;;;;;;5007493;28;20037;-41
2023/07/04 05:53:56;;;;;;;5.72;2.63;;;17.00;99.90;;;;;;5000099;28;20095;-41
2023/07/04 05:56:27;;;;;;;2.85;2.30;;;17.00;99.90;;;;;;4998762;28;20038;-40
2023/07/04 05:58:58;;;;;;;2.60;2.22;;;17.10;99.90;;;;;;4992676;28;20038;-42
2023/07/04 06:01:34;;;;;;;3.47;2.25;;;17.10;99.90;;;;;;4996537;28;20056;-40
2023/07/04 06:04:02;;;;;;;2.72;2.00;;;17.10;99.90;;;;;;5007002;28;20026;-40
2023/07/04 06:06:51;;;;;;;2.85;2.35;;;17.10;99.90;;;;;;5005559;28;20061;-40
2023/07/04 06:09:19;;;;;;;2.60;1.92;;;17.20;99.90;;;;;;5002277;28;20034;-42
2023/07/04 06:11:46;;;;;;;3.97;2.03;;;17.30;99.90;;;;;;4999745;28;20056;-40
2023/07/04 06:14:18;;;;;;;3.72;2.50;;;17.40;99.90;;;;;;5000641;28;20566;-40
2023/07/04 06:16:44;;;;;;;2.60;2.20;;;17.50;99.90;;;;;;4998069;28;20492;-42
2023/07/04 06:19:09;;;;;;;2.97;2.33;;;17.60;99.90;;;;;;5003524;28;20084;-42
2023/07/04 06:21:35;;;;;;;6.03;2.00;;;17.60;99.90;;;;;;5002336;28;20030;-41
2023/07/04 06:24:01;;;;;;;2.53;2.00;;;17.60;99.90;;;;;;4984316;28;20033;-42
2023/07/04 06:26:31;;;;;;;4.20;2.05;;;17.70;99.90;;;;;;4999666;28;20084;-42
2023/07/04 06:28:57;;;;;;;3.67;1.90;;;17.70;99.90;;;;;;5004665;28;20372;-42
2023/07/04 06:31:25;;;;;;;3.00;2.13;;;17.80;99.90;;;;;;4999931;28;20038;-42
2023/07/04 06:33:50;;;;;;;3.47;2.27;;;17.90;99.90;;;;;;5002023;28;20098;-40
2023/07/04 06:36:16;;;;;;;3.58;2.47;;;17.90;99.90;;;;;;5003543;28;20030;-37
2023/07/04 06:38:42;;;;;;;2.67;2.20;;;17.90;99.90;;;;;;5003941;28;20105;-42
2023/07/04 06:41:13;;;;;;;2.63;1.60;;;18.00;99.90;;;;;;5006167;28;20046;-42
2023/07/04 06:43:43;;;;;;;3.38;1.95;;;18.20;99.90;;;;;;5004871;28;20034;-41
2023/07/04 06:46:19;;;;;;;3.22;2.20;;;18.50;99.90;;;;;;5002420;28;20038;-39
2023/07/04 06:48:49;;;;;;;3.97;2.15;;;18.80;99.90;;;;;;5005044;28;20030;-41
2023/07/04 06:51:17;;;;;;;2.40;2.00;;;19.10;99.90;;;;;;5004280;28;20134;-41
2023/07/04 06:53:43;;;;;;;3.83;2.13;;;19.00;99.90;;;;;;5002060;28;20395;-39
2023/07/04 06:56:11;;;;;;;3.65;2.10;;;19.10;99.90;;;;;;5002673;28;20034;-42
2023/07/04 06:58:40;;;;;;;3.60;2.22;;;19.30;99.90;;;;;;4999363;28;20455;-40
2023/07/04 07:01:06;;;;;;;3.60;1.98;;;19.40;99.90;;;;;;4998984;28;20547;-42
2023/07/04 07:03:32;;;;;;;2.55;1.90;;;19.40;99.90;;;;;;5006196;28;20112;-40
2023/07/04 07:06:02;;;;;;;5.45;2.25;;;19.40;99.90;;;;;;4999819;28;20034;-41
2023/07/04 07:08:28;;;;;;;2.80;1.80;;;19.30;99.90;;;;;;4997827;28;20038;-40
2023/07/04 07:10:56;;;;;;;3.67;1.92;;;19.20;99.90;;;;;;4999686;28;20084;-41
2023/07/04 07:13:21;;;;;;;;;;;19.40;99.90;;;;;;4998410;28;20036;-36
2023/07/04 07:15:47;;;;;;;4.10;1.80;;;19.50;99.90;;;;;;4988511;28;20347;-42
2023/07/04 07:18:13;;;;;;;2.30;1.95;;;19.60;99.90;;;;;;4999530;28;20023;-42
2023/07/04 07:20:38;;;;;;;3.15;2.03;;;19.80;99.90;;;;;;5000129;28;20117;-38
2023/07/04 07:23:04;;;;;;;2.75;2.00;;;20.00;99.90;;;;;;5004749;28;20523;-42
2023/07/04 07:25:29;;;;;;;3.58;2.10;;;20.20;99.90;;;;;;5002645;28;20014;-41
2023/07/04 07:27:55;;;;;;;3.33;2.22;;;20.50;99.90;;;;;;5000198;28;20030;-42
2023/07/04 07:30:20;;;;;;;2.60;2.05;;;20.50;99.90;;;;;;5001850;28;20668;-41
2023/07/04 07:32:46;;;;;;;3.80;2.15;;;20.40;99.90;;;;;;5001966;28;20112;-42
2023/07/04 07:35:12;;;;;;;3.55;2.00;;;20.30;99.90;;;;;;5002348;28;20045;-42
2023/07/04 07:37:38;;;;;;;3.97;2.28;;;20.60;99.90;;;;;;5005025;28;20034;-37
2023/07/04 07:40:04;;;;;;;4.03;2.10;;;20.60;99.90;;;;;;5002636;28;20026;-41
2023/07/04 07:42:35;;;;;;;2.33;2.00;;;20.50;99.90;;;;;;5000146;28;20030;-42
2023/07/04 07:45:00;;;;;;;5.60;2.00;;;20.40;99.90;;;;;;4999325;28;20034;-39
2023/07/04 07:47:26;;;;;;;3.38;2.08;;;20.40;99.90;;;;;;5000882;28;20022;-42
2023/07/04 07:49:51;;;;;;;2.67;2.03;;;20.30;99.90;;;;;;4998378;28;20531;-34
2023/07/04 07:52:17;;;;;;;3.85;2.13;;;20.50;99.90;;;;;;4998976;28;20546;-40
2023/07/04 07:54:42;;;;;;;3.45;2.05;;;21.00;99.90;;;;;;4999982;28;20411;-36
2023/07/04 07:57:09;;;;;;;2.58;2.22;;;21.10;99.90;;;;;;4996208;28;20037;-42
2023/07/04 07:59:34;;;;;;;3.28;2.20;;;21.10;99.90;;;;;;4996492;28;20519;-35
2023/07/04 08:02:01;;;;;;;3.90;2.08;;;20.80;99.90;;;;;;4995741;28;20034;-35
2023/07/04 08:04:26;;;;;;;4.82;2.38;;;21.10;99.90;;;;;;5000467;28;20026;-33
2023/07/04 08:06:52;;;;;;;4.88;2.28;;;21.40;99.90;;;;;;5001699;28;20385;-33
2023/07/04 08:09:19;;;;;;;2.70;2.15;;;21.50;99.90;;;;;;5002886;28;20037;-32
2023/07/04 08:11:45;;;;;;;5.38;2.05;;;21.50;99.90;;;;;;4999356;28;20033;-34
2023/07/04 08:14:13;;;;;;;4.53;1.90;;;21.50;99.90;;;;;;5006587;28;20038;-32
2023/07/04 08:16:49;;;;;;;;;;;21.40;99.90;;;;;;5011962;28;20044;-33
2023/07/04 08:19:17;;;;;;;4.43;2.17;;;21.30;99.90;;;;;;5007425;28;19963;-32
2023/07/04 08:21:43;;;;;;;5.47;2.40;;;20.80;99.90;;;;;;5006850;28;20522;-35
2023/07/04 08:24:12;;;;;;;5.88;2.28;;;20.60;99.90;;;;;;5001962;28;20049;-32
2023/07/04 08:26:40;;;;;;;4.25;2.58;;;20.50;99.90;;;;;;5010638;28;20029;-34
2023/07/04 08:29:07;;;;;;;4.28;2.50;;;20.60;99.90;;;;;;5004508;28;20072;-33
2023/07/04 08:31:33;;;;;;;5.07;2.43;;;21.00;99.90;;;;;;5002634;28;20525;-33
2023/07/04 08:33:59;;;;;;;3.38;2.15;;;21.00;99.90;;;;;;5002492;28;20030;-32
2023/07/04 08:36:25;;;;;;;5.88;2.33;;;21.10;99.90;;;;;;5008901;28;20028;-33
2023/07/04 08:38:51;;;;;;;3.28;2.30;;;21.30;99.90;;;;;;5002582;28;20048;-35
2023/07/04 08:41:53;;;;;;;5.30;2.50;;;21.20;99.90;;;;;;5005395;28;20041;-35
2023/07/04 08:44:23;;;;;;;4.60;2.25;;;21.30;99.90;;;;;;5002182;28;20494;-34
2023/07/04 08:46:53;;;;;;;2.67;2.47;;;21.10;99.90;;;;;;5004613;28;20018;-33
2023/07/04 08:49:41;;;;;;;4.63;2.60;;;21.00;99.90;;;;;;5003583;28;20750;-36
2023/07/04 08:52:28;;;;;;;6.80;2.83;;;21.10;99.90;;;;;;5005938;28;20038;-34
2023/07/04 08:54:54;;;;;;;5.15;2.40;;;21.60;99.90;;;;;;5006165;28;20476;-32
2023/07/04 08:57:27;;;;;;;4.60;2.13;;;21.90;99.90;;;;;;5003717;28;20700;-32
2023/07/04 09:00:05;;;;;;;4.05;2.28;;;22.50;99.90;;;;;;5003697;28;20054;-36
2023/07/04 09:03:07;;;;;;;6.18;2.72;;;22.70;99.90;;;;;;5002861;28;20042;-33
2023/07/04 09:05:35;;;;;;;4.13;2.55;;;22.00;99.90;;;;;;5007229;28;20032;-34
2023/07/04 09:08:12;;;;;;;5.60;2.80;;;21.90;99.90;;;;;;5005497;28;20099;-32
2023/07/04 09:10:45;;;;;;;7.20;3.08;;;21.90;99.90;;;;;;5008322;28;20033;-42
2023/07/04 09:13:24;;;;;;;4.25;2.95;;;22.60;99.90;;;;;;5001165;28;20373;-41
2023/07/04 09:15:51;;;;;;;4.50;2.67;;;22.90;99.90;;;;;;5007414;28;20123;-40
2023/07/04 09:18:33;;;;;;;6.28;2.90;;;22.80;99.90;;;;;;5008519;28;20373;-42
2023/07/04 09:21:09;;;;;;;6.25;3.17;;;22.30;99.90;;;;;;5005060;28;20030;-42
2023/07/04 09:23:35;;;;;;;6.65;3.65;;;22.20;99.90;;;;;;5006011;28;20084;-42
2023/07/04 09:26:00;;;;;;;6.72;3.30;;;21.80;99.90;;;;;;5006356;28;20482;-41
2023/07/04 09:28:27;;;;;;;7.57;3.30;;;22.00;99.90;;;;;;5003922;28;20387;-42
2023/07/04 09:30:56;;;;;;;6.23;3.30;;;22.20;99.90;;;;;;5000404;28;20030;-41
2023/07/04 09:33:23;;;;;;;5.47;3.10;;;22.20;99.90;;;;;;5003184;28;20400;-41
2023/07/04 09:35:49;;;;;;;6.83;3.43;;;22.50;99.90;;;;;;5002813;28;20103;-42
2023/07/04 09:38:14;;;;;;;6.50;3.65;;;23.10;99.90;;;;;;5004617;28;20276;-41
2023/07/04 09:40:51;;;;;;;8.48;4.07;;;23.10;99.90;;;;;;5007924;28;20036;-40
2023/07/04 09:43:31;;;;;;;8.45;4.50;;;22.80;99.90;;;;;;4980439;28;20109;-40
2023/07/04 09:46:13;;;;;;;7.35;4.07;;;22.50;99.90;;;;;;5003196;28;20518;-42
2023/07/04 09:48:39;;;;;;;10.10;3.75;;;22.50;99.90;;;;;;4999818;28;20026;-42
2023/07/04 09:51:43;;;;;;;6.70;3.80;;;22.20;99.90;;;;;;5004315;28;20042;-42
2023/07/04 09:54:18;;;;;;;7.35;3.80;;;22.20;99.90;;;;;;4944191;28;20047;-45
2023/07/04 09:56:44;;;;;;;6.65;3.30;;;22.70;99.90;;;;;;4945385;28;20022;-42
2023/07/04 09:59:16;;;;;;;7.60;3.67;;;23.30;99.90;;;;;;4972269;28;20069;-40
2023/07/04 10:01:48;;;;;;;8.13;3.85;;;23.90;99.90;;;;;;4982174;28;20054;-42
2023/07/04 10:04:26;;;;;;;6.47;3.45;;;24.30;99.90;;;;;;5006991;28;20037;-42
2023/07/04 10:06:54;;;;;;;6.60;3.53;;;24.70;99.90;;;;;;5003825;28;20033;-41
2023/07/04 10:09:20;;;;;;;6.22;3.72;;;24.90;99.90;;;;;;5005288;28;20030;-38
2023/07/04 10:11:52;;;;;;;5.25;3.38;;;24.90;99.90;;;;;;5004138;28;20065;-41
2023/07/04 10:14:32;;;;;;;8.43;4.18;;;24.90;99.90;;;;;;5004063;28;20030;-42
2023/07/04 10:17:14;;;;;;;9.95;4.05;;;24.70;99.90;;;;;;5005979;28;20034;-42
2023/07/04 10:19:42;;;;;;;6.03;3.47;;;24.30;99.90;;;;;;4986616;28;20543;-33
2023/07/04 10:22:08;;;;;;;5.95;3.75;;;23.90;99.90;;;;;;5006909;28;20113;-32
2023/07/04 10:24:35;;;;;;;10.70;3.58;;;23.70;99.90;;;;;;5006400;28;20535;-34
2023/07/04 10:27:05;;;;;;;7.13;3.80;;;23.50;99.90;;;;;;4987293;28;20022;-35
2023/07/04 10:29:54;;;;;;;7.50;3.90;;;23.30;99.90;;;;;;5002509;28;20546;-36
2023/07/04 10:32:21;;;;;;;8.98;3.88;;;23.20;99.90;;;;;;5002116;28;20033;-34
2023/07/04 10:34:48;;;;;;;8.43;3.85;;;23.20;99.90;;;;;;5003776;28;20037;-35
2023/07/04 10:37:27;;;;;;;5.35;3.15;;;23.60;99.90;;;;;;5003002;28;20026;-33
2023/07/04 10:39:58;;;;;;;5.80;3.47;;;23.80;99.90;;;;;;5001353;28;20065;-34
2023/07/04 10:42:43;;;;;;;6.15;3.83;;;23.70;99.90;;;;;;5001859;28;20098;-34
2023/07/04 10:45:14;;;;;;;5.20;2.90;;;23.70;99.90;;;;;;4999424;28;20026;-33
2023/07/04 10:47:41;;;;;;;6.55;2.95;;;23.60;99.90;;;;;;5002275;28;20057;-34
2023/07/04 10:50:27;;;;;;;5.32;2.67;;;23.60;99.90;;;;;;4999956;28;20032;-33
2023/07/04 10:52:52;;;;;;;3.45;2.42;;;24.20;99.90;;;;;;5004326;28;20049;-33
2023/07/04 10:55:30;;;;;;;5.22;2.67;;;24.50;99.90;;;;;;5003170;28;20026;-34
2023/07/04 10:58:03;;;;;;;7.38;2.90;;;24.30;99.90;;;;;;5004599;28;20041;-32
2023/07/04 11:00:35;;;;;;;4.75;2.63;;;24.80;99.90;;;;;;5001157;28;20054;-33
2023/07/04 11:03:06;;;;;;;6.05;2.85;;;24.80;99.90;;;;;;5005465;28;20023;-33
2023/07/04 11:05:36;;;;;;;5.32;2.60;;;25.00;99.90;;;;;;5002470;28;20036;-34
2023/07/04 11:08:02;;;;;;;4.00;2.50;;;24.90;99.90;;;;;;5003527;28;20546;-37
2023/07/04 11:10:32;;;;;;;5.53;2.95;;;24.30;99.90;;;;;;5002839;28;20041;-33
2023/07/04 11:12:57;;;;;;;5.57;2.70;;;24.10;99.90;;;;;;5005769;28;20046;-33
2023/07/04 11:15:33;;;;;;;5.43;3.03;;;24.10;99.90;;;;;;4998265;28;20030;-38
2023/07/04 11:18:00;;;;;;;6.63;2.50;;;23.70;99.90;;;;;;5005622;28;20033;-35
2023/07/04 11:20:40;;;;;;;5.68;2.97;;;23.70;99.90;;;;;;5002373;28;20033;-39
2023/07/04 11:23:20;;;;;;;6.78;2.78;;;24.00;99.90;;;;;;4998883;28;20440;-33
2023/07/04 11:25:49;;;;;;;5.05;2.60;;;24.10;99.90;;;;;;5006941;28;20048;-33
2023/07/04 11:28:34;;;;;;;5.13;2.55;;;24.60;99.90;;;;;;4998870;28;20022;-32
2023/07/04 11:31:13;;;;;;;5.15;2.40;;;24.70;99.90;;;;;;5000089;28;20146;-36
2023/07/04 11:33:53;;;;;;;4.53;2.53;;;24.80;99.90;;;;;;5002420;28;20033;-42
2023/07/04 11:36:48;;;;;;;5.72;2.92;;;24.80;99.90;;;;;;4984338;28;20033;-42
2023/07/04 11:39:40;;;;;;;4.30;2.92;;;25.10;99.90;;;;;;4999068;28;20483;-41
2023/07/04 11:42:44;;;;;;;4.43;2.92;;;25.20;99.90;;;;;;5002106;28;20038;-41
2023/07/04 11:45:17;;;;;;;4.05;2.60;;;25.60;99.90;;;;;;5009368;28;20420;-42
2023/07/04 11:47:58;;;;;;;5.78;2.85;;;26.20;99.90;;;;;;5007450;28;20050;-40
2023/07/04 11:50:35;;;;;;;4.75;2.90;;;26.50;99.90;;;;;;5010375;28;20535;-42
2023/07/04 11:53:02;;;;;;;6.25;3.30;;;26.40;99.90;;;;;;5009258;28;20804;-40
2023/07/04 11:55:34;;;;;;;3.58;2.67;;;26.10;99.90;;;;;;5009581;28;20119;-43
2023/07/04 11:58:08;;;;;;;5.35;2.67;;;25.60;99.90;;;;;;5005857;28;20076;-40
2023/07/04 12:00:39;;;;;;;5.25;2.70;;;25.10;99.90;;;;;;5003380;28;20050;-41
2023/07/04 12:03:17;;;;;;;5.72;2.97;;;25.20;99.90;;;;;;5005965;28;20048;-42
2023/07/04 12:05:45;;;;;;;5.20;3.20;;;25.20;99.90;;;;;;4985414;28;20022;-41
2023/07/04 12:08:13;;;;;;;;;;;25.30;99.90;;;;;;5003707;28;20701;-41
2023/07/04 12:10:39;;;;;;;5.15;2.95;;;25.40;99.90;;;;;;5004761;28;19920;-39
2023/07/04 12:13:07;;;;;;;4.50;3.00;;;25.20;99.90;;;;;;5005466;28;20029;-41
2023/07/04 12:15:36;;;;;;;5.32;2.75;;;25.10;99.90;;;;;;4986494;28;20041;-42
2023/07/04 12:18:18;;;;;;;3.67;2.40;;;24.90;99.90;;;;;;5005868;28;20503;-42
2023/07/04 12:20:44;;;;;;;6.57;2.88;;;25.10;99.90;;;;;;5005858;28;20038;-40
2023/07/04 12:23:10;;;;;;;4.53;3.05;;;25.40;99.90;;;;;;5002229;28;20515;-40
2023/07/04 12:25:44;;;;;;;7.88;3.08;;;25.60;99.90;;;;;;5005119;28;20026;-40
2023/07/04 12:28:11;;;;;;;5.78;3.08;;;25.50;99.90;;;;;;5000271;28;20531;-43
2023/07/04 12:31:01;;;;;;;5.45;3.00;;;26.10;99.90;;;;;;4999576;28;20092;-43
2023/07/04 12:33:44;;;;;;;4.63;2.78;;;26.40;99.90;;;;;;5004710;28;20034;-42
2023/07/04 12:36:15;;;;;;;6.10;2.70;;;26.40;99.90;;;;;;5005448;28;20113;-42
2023/07/04 12:38:44;;;;;;;6.35;3.00;;;26.30;99.90;;;;;;5006085;28;20427;-39
2023/07/04 12:41:10;;;;;;;4.03;2.95;;;26.30;99.90;;;;;;5004194;28;20041;-38
2023/07/04 12:43:37;;;;;;;5.45;3.20;;;26.40;99.90;;;;;;5004617;28;20029;-41
2023/07/04 12:46:08;;;;;;;4.63;2.80;;;26.70;99.90;;;;;;5006462;28;20033;-41
2023/07/04 12:48:35;;;;;;;5.63;3.22;;;26.90;99.90;;;;;;5002334;28;20026;-41
2023/07/04 12:51:01;;;;;;;5.07;2.93;;;27.00;99.90;;;;;;5005002;28;21138;-42
2023/07/04 12:53:28;;;;;;;4.55;2.90;;;26.80;99.90;;;;;;5000334;28;20288;-41
2023/07/04 12:55:56;;;;;;;5.13;3.10;;;26.30;99.90;;;;;;5002549;28;20141;-40
2023/07/04 12:58:23;;;;;;;4.43;2.80;;;26.00;99.90;;;;;;4998773;28;20087;-42